createdAt,value
2023-02-27T00:00:16.969Z,89
2023-02-27T00:05:16.851Z,89
2023-02-27T00:10:16.795Z,89
2023-02-27T00:15:16.770Z,89
2023-02-27T00:20:16.804Z,89
2023-02-27T00:25:16.901Z,89
2023-02-27T00:30:16.751Z,89
2023-02-27T00:35:16.759Z,89
2023-02-27T00:40:16.776Z,89
2023-02-27T00:45:16.772Z,89
2023-02-27T00:50:16.841Z,89
2023-02-27T00:55:16.895Z,89
2023-02-27T01:00:16.934Z,88
2023-02-27T01:05:16.924Z,89
2023-02-27T01:10:16.901Z,88
2023-02-27T01:15:16.861Z,88
2023-02-27T01:20:16.996Z,88
2023-02-27T01:25:16.928Z,88
2023-02-27T01:30:17.060Z,88
2023-02-27T01:35:17.052Z,88
2023-02-27T01:40:16.930Z,88
2023-02-27T01:45:16.925Z,88
2023-02-27T01:50:16.916Z,88
2023-02-27T01:55:16.939Z,88
2023-02-27T02:00:17.203Z,88
2023-02-27T02:05:17.121Z,88
2023-02-27T02:10:17.062Z,88
2023-02-27T02:15:17.263Z,88
2023-02-27T02:20:17.041Z,88
2023-02-27T02:25:17.021Z,88
2023-02-27T02:30:17.040Z,89
2023-02-27T02:35:17.099Z,89
2023-02-27T02:40:17.077Z,89
2023-02-27T02:45:17.128Z,89
2023-02-27T02:50:17.186Z,89
2023-02-27T02:55:17.220Z,90
2023-02-27T03:00:17.064Z,90
2023-02-27T03:05:17.060Z,90
2023-02-27T03:10:17.344Z,90
2023-02-27T03:15:17.143Z,90
2023-02-27T03:20:17.197Z,90
2023-02-27T03:25:17.157Z,90
2023-02-27T03:30:17.183Z,90
2023-02-27T03:35:17.181Z,90
2023-02-27T03:40:17.227Z,90
2023-02-27T03:45:17.317Z,90
2023-02-27T03:50:17.383Z,90
2023-02-27T03:55:17.136Z,90
2023-02-27T04:00:17.292Z,90
2023-02-27T04:05:17.252Z,90
2023-02-27T04:10:17.352Z,90
2023-02-27T04:15:17.397Z,90
2023-02-27T04:20:17.281Z,90
2023-02-27T04:25:17.262Z,90
2023-02-27T04:30:17.279Z,90
2023-02-27T04:35:17.383Z,90
2023-02-27T04:40:17.341Z,90
2023-02-27T04:45:17.609Z,90
2023-02-27T04:50:16.284Z,90
2023-02-27T04:55:16.388Z,90
2023-02-27T05:00:17.529Z,90
2023-02-27T05:05:17.391Z,90
2023-02-27T05:10:15.424Z,90
2023-02-27T05:15:15.417Z,90
2023-02-27T05:20:15.431Z,90
2023-02-27T05:25:15.605Z,90
2023-02-27T05:30:15.398Z,90
2023-02-27T05:35:15.563Z,90
2023-02-27T05:40:15.488Z,90
2023-02-27T05:45:15.693Z,90
2023-02-27T05:50:15.429Z,90
2023-02-27T05:55:17.746Z,90
2023-02-27T06:00:15.648Z,90
2023-02-27T06:05:15.741Z,90
2023-02-27T06:10:15.548Z,89
2023-02-27T06:15:15.581Z,89
2023-02-27T06:20:15.484Z,89
2023-02-27T06:25:16.527Z,90
2023-02-27T06:30:15.589Z,90
2023-02-27T06:35:15.681Z,90
2023-02-27T06:40:15.646Z,90
2023-02-27T06:45:15.595Z,90
2023-02-27T06:50:15.583Z,90
2023-02-27T06:55:15.669Z,90
2023-02-27T07:00:15.635Z,90
2023-02-27T07:05:15.601Z,90
2023-02-27T07:10:15.857Z,90
2023-02-27T07:15:15.742Z,90
2023-02-27T07:20:15.654Z,89
2023-02-27T07:25:15.777Z,89
2023-02-27T07:30:15.743Z,89
2023-02-27T07:35:15.750Z,89
2023-02-27T07:40:15.876Z,89
2023-02-27T07:45:15.697Z,88
2023-02-27T07:50:15.800Z,88
2023-02-27T07:55:15.708Z,88
2023-02-27T08:00:15.794Z,88
2023-02-27T08:05:15.908Z,89
2023-02-27T08:10:15.754Z,88
2023-02-27T08:15:15.873Z,89
2023-02-27T08:20:15.840Z,88
2023-02-27T08:25:15.821Z,88
2023-02-27T08:30:16.008Z,88
2023-02-27T08:35:15.977Z,87
2023-02-27T08:40:15.819Z,87
2023-02-27T08:45:15.912Z,86
2023-02-27T08:50:15.920Z,86
2023-02-27T08:55:16.850Z,86
2023-02-27T09:00:17.099Z,85
2023-02-27T09:05:16.942Z,85
2023-02-27T09:10:16.949Z,85
2023-02-27T09:15:17.066Z,85
2023-02-27T09:20:17.084Z,84
2023-02-27T09:25:16.953Z,84
2023-02-27T09:30:16.983Z,84
2023-02-27T09:35:16.957Z,84
2023-02-27T09:40:16.995Z,84
2023-02-27T09:45:16.892Z,85
2023-02-27T09:50:17.025Z,85
2023-02-27T09:55:17.023Z,85
2023-02-27T10:00:17.067Z,84
2023-02-27T10:05:17.045Z,84
2023-02-27T10:10:17.047Z,84
2023-02-27T10:15:17.184Z,84
2023-02-27T10:20:17.024Z,84
2023-02-27T10:25:30.276Z,84
2023-02-27T10:30:23.489Z,84
2023-02-27T10:35:17.107Z,84
2023-02-27T10:40:17.120Z,84
2023-02-27T10:45:17.239Z,84
2023-02-27T10:50:17.222Z,83
2023-02-27T10:55:17.167Z,83
2023-02-27T11:00:17.152Z,83
2023-02-27T11:05:17.198Z,83
2023-02-27T11:10:17.235Z,84
2023-02-27T11:15:17.150Z,84
2023-02-27T11:20:17.302Z,83
2023-02-27T11:25:17.230Z,83
2023-02-27T11:30:17.514Z,84
2023-02-27T11:35:17.206Z,84
2023-02-27T11:40:17.399Z,84
2023-02-27T11:45:17.218Z,84
2023-02-27T11:50:17.396Z,84
2023-02-27T11:55:17.209Z,83
2023-02-27T12:00:17.270Z,83
2023-02-27T12:05:17.330Z,83
2023-02-27T12:10:17.495Z,83
2023-02-27T12:15:17.284Z,82
2023-02-27T12:20:17.346Z,82
2023-02-27T12:25:17.395Z,83
2023-02-27T12:30:17.322Z,83
2023-02-27T12:35:17.401Z,84
2023-02-27T12:40:17.400Z,83
2023-02-27T12:45:15.577Z,83
2023-02-27T12:50:15.375Z,83
2023-02-27T12:55:15.385Z,81
2023-02-27T13:00:15.511Z,81
2023-02-27T13:05:15.458Z,81
2023-02-27T13:10:15.567Z,80
2023-02-27T13:15:15.427Z,80
2023-02-27T13:20:15.706Z,79
2023-02-27T13:25:15.490Z,79
2023-02-27T13:30:15.650Z,79
2023-02-27T13:35:15.490Z,79
2023-02-27T13:40:15.692Z,78
2023-02-27T13:45:15.655Z,78
2023-02-27T13:50:15.504Z,78
2023-02-27T13:55:15.618Z,78
2023-02-27T14:00:15.592Z,78
2023-02-27T14:05:15.579Z,78
2023-02-27T14:10:15.610Z,77
2023-02-27T14:15:15.644Z,77
2023-02-27T14:20:15.623Z,77
2023-02-27T14:25:15.574Z,77
2023-02-27T14:30:15.830Z,76
2023-02-27T14:35:15.625Z,77
2023-02-27T14:40:21.301Z,77
2023-02-27T14:45:15.640Z,76
2023-02-27T14:50:15.712Z,75
2023-02-27T14:55:15.637Z,76
2023-02-27T15:00:15.749Z,75
2023-02-27T15:05:15.730Z,74
2023-02-27T15:10:15.778Z,75
2023-02-27T15:15:15.831Z,74
2023-02-27T15:20:16.669Z,75
2023-02-27T15:25:15.738Z,76
2023-02-27T15:30:15.756Z,73
2023-02-27T15:35:15.760Z,74
2023-02-27T15:40:15.803Z,73
2023-02-27T15:45:15.870Z,73
2023-02-27T15:50:15.949Z,73
2023-02-27T15:55:15.730Z,71
2023-02-27T16:00:15.794Z,71
2023-02-27T16:05:15.936Z,71
2023-02-27T16:10:15.868Z,73
2023-02-27T16:15:15.853Z,71
2023-02-27T16:20:16.378Z,71
2023-02-27T16:25:16.189Z,70
2023-02-27T16:30:15.876Z,71
2023-02-27T16:35:15.893Z,71
2023-02-27T16:40:16.085Z,71
2023-02-27T16:45:16.187Z,71
2023-02-27T16:50:15.977Z,71
2023-02-27T16:55:15.935Z,70
2023-02-27T17:00:15.907Z,70
2023-02-27T17:05:15.984Z,71
2023-02-27T17:10:16.016Z,70
2023-02-27T17:15:15.989Z,71
2023-02-27T17:20:16.147Z,71
2023-02-27T17:25:15.993Z,71
2023-02-27T17:30:16.077Z,70
2023-02-27T17:35:16.020Z,71
2023-02-27T17:40:16.260Z,69
2023-02-27T17:45:16.031Z,69
2023-02-27T17:50:16.108Z,70
2023-02-27T17:55:16.013Z,70
2023-02-27T18:00:16.143Z,69
2023-02-27T18:05:16.047Z,69
2023-02-27T18:10:16.173Z,69
2023-02-27T18:15:16.211Z,68
2023-02-27T18:20:16.134Z,69
2023-02-27T18:25:16.830Z,69
2023-02-27T18:30:16.165Z,69
2023-02-27T18:35:16.354Z,69
2023-02-27T18:40:16.157Z,69
2023-02-27T18:45:16.185Z,68
2023-02-27T18:50:16.251Z,69
2023-02-27T18:55:16.187Z,69
2023-02-27T19:00:16.310Z,68
2023-02-27T19:05:16.258Z,68
2023-02-27T19:10:16.237Z,68
2023-02-27T19:15:16.318Z,69
2023-02-27T19:20:16.258Z,69
2023-02-27T19:25:16.268Z,69
2023-02-27T19:30:16.652Z,69
2023-02-27T19:35:16.310Z,69
2023-02-27T19:40:16.248Z,69
2023-02-27T19:45:16.421Z,68
2023-02-27T19:50:16.367Z,69
2023-02-27T19:55:16.274Z,69
2023-02-27T20:00:16.373Z,67
2023-02-27T20:05:16.363Z,69
2023-02-27T20:10:16.374Z,68
2023-02-27T20:15:16.406Z,68
2023-02-27T20:20:16.674Z,68
2023-02-27T20:25:16.545Z,68
2023-02-27T20:30:16.409Z,68
2023-02-27T20:35:16.408Z,68
2023-02-27T20:40:16.484Z,70
2023-02-27T20:45:16.459Z,69
2023-02-27T20:50:16.477Z,69
2023-02-27T20:55:16.468Z,69
2023-02-27T21:00:16.679Z,69
2023-02-27T21:05:16.552Z,69
2023-02-27T21:10:16.517Z,71
2023-02-27T21:15:16.662Z,71
2023-02-27T21:20:16.541Z,70
2023-02-27T21:25:16.494Z,71
2023-02-27T21:30:16.490Z,69
2023-02-27T21:35:16.553Z,69
2023-02-27T21:40:16.772Z,69
2023-02-27T21:45:16.529Z,70
2023-02-27T21:50:16.713Z,69
2023-02-27T21:55:16.620Z,70
2023-02-27T22:00:16.629Z,71
2023-02-27T22:05:16.818Z,70
2023-02-27T22:10:16.659Z,70
2023-02-27T22:15:16.641Z,70
2023-02-27T22:20:16.659Z,70
2023-02-27T22:25:16.816Z,70
2023-02-27T22:30:16.705Z,71
2023-02-27T22:35:16.662Z,71
2023-02-27T22:40:16.672Z,71
2023-02-27T22:45:16.776Z,72
2023-02-27T22:50:16.741Z,72
2023-02-27T22:55:16.804Z,72
2023-02-27T23:00:16.947Z,72
2023-02-27T23:05:16.748Z,73
2023-02-27T23:10:16.787Z,72
2023-02-27T23:15:16.801Z,72
2023-02-27T23:20:16.850Z,73
2023-02-27T23:25:16.846Z,73
2023-02-27T23:30:16.754Z,73
2023-02-27T23:35:16.945Z,73
2023-02-27T23:40:16.945Z,73
2023-02-27T23:45:16.872Z,73
2023-02-27T23:50:16.956Z,73
2023-02-27T23:55:16.930Z,73
